Time;durP1;ratioP1;P1;durP2;ratioP2;P2;SDS_P1;SDS_P2;PMS_P1;PMS_P2;Temp;Humidity;BMP_temperature;BMP_pressure;BME280_temperature;BME280_humidity;BME280_pressure;Samples;Min_cycle;Max_cycle;Signal;HPM_P1;HPM_P2
2022/08/28 00:00:33;;;;;;;3.60;0.83;;;15.10;99.90;;;;;;5013652;28;20507;-82
2022/08/28 00:02:59;;;;;;;3.73;0.80;;;15.10;99.90;;;;;;5013955;28;20420;-82
2022/08/28 00:05:27;;;;;;;4.07;0.83;;;15.00;99.90;;;;;;5013058;28;20765;-82
2022/08/28 00:07:53;;;;;;;1.13;0.40;;;15.10;99.90;;;;;;5013797;28;20631;-83
2022/08/28 00:10:21;;;;;;;3.43;0.97;;;15.10;99.90;;;;;;5014022;28;20420;-82
2022/08/28 00:12:48;;;;;;;2.50;0.30;;;15.20;99.90;;;;;;5013738;28;20214;-80
2022/08/28 00:15:17;;;;;;;3.83;1.07;;;15.20;99.90;;;;;;5013611;28;20431;-79
2022/08/28 00:17:43;;;;;;;1.47;0.50;;;15.20;99.90;;;;;;5014044;28;20899;-81
2022/08/28 00:20:12;;;;;;;2.33;0.77;;;15.20;99.90;;;;;;5013825;28;20422;-82
2022/08/28 00:22:38;;;;;;;1.90;0.80;;;15.10;99.90;;;;;;5013632;28;20408;-80
2022/08/28 00:25:09;;;;;;;2.80;0.87;;;15.10;99.90;;;;;;5013493;28;20838;-79
2022/08/28 00:27:53;;;;;;;4.70;0.53;;;15.10;99.90;;;;;;5013716;28;20819;-80
2022/08/28 00:30:31;;;;;;;3.30;0.70;;;15.10;99.90;;;;;;5013228;28;20429;-81
2022/08/28 00:33:03;;;;;;;5.13;0.70;;;15.00;99.90;;;;;;5013558;28;20452;-80
2022/08/28 00:35:29;;;;;;;3.20;0.47;;;14.90;99.90;;;;;;4995923;28;20498;-82
2022/08/28 00:37:56;;;;;;;2.20;0.60;;;14.90;99.90;;;;;;5012964;28;20426;-81
2022/08/28 00:40:24;;;;;;;3.57;2.27;;;14.90;99.90;;;;;;5013375;28;20267;-80
2022/08/28 00:42:50;;;;;;;5.37;0.80;;;14.80;99.90;;;;;;5013266;28;20447;-80
2022/08/28 00:45:17;;;;;;;1.93;0.43;;;14.80;99.90;;;;;;5012927;28;20501;-82
2022/08/28 00:47:43;;;;;;;2.10;0.60;;;14.70;99.90;;;;;;5013336;28;20705;-81
2022/08/28 00:50:16;;;;;;;6.80;1.00;;;14.70;99.90;;;;;;5013166;28;20510;-82
2022/08/28 00:52:45;;;;;;;3.13;1.13;;;14.60;99.90;;;;;;5013280;28;20577;-82
2022/08/28 00:55:17;;;;;;;3.60;1.43;;;14.60;99.90;;;;;;5012994;28;20451;-82
2022/08/28 00:57:58;;;;;;;1.90;0.47;;;14.60;99.90;;;;;;5013182;28;20416;-80
2022/08/28 01:00:33;;;;;;;2.63;1.00;;;14.60;99.90;;;;;;5012813;28;20412;-81
2022/08/28 01:02:59;;;;;;;4.50;1.07;;;14.60;99.90;;;;;;5013211;28;20414;-81
2022/08/28 01:05:27;;;;;;;2.63;0.80;;;14.60;99.90;;;;;;5012800;28;20463;-81
2022/08/28 01:07:54;;;;;;;3.57;0.87;;;14.60;99.90;;;;;;5012841;28;20478;-81
2022/08/28 01:10:22;;;;;;;2.93;1.10;;;14.60;99.90;;;;;;4995217;28;20411;-81
2022/08/28 01:12:50;;;;;;;4.03;0.53;;;14.60;99.90;;;;;;5012849;28;20434;-80
2022/08/28 01:15:19;;;;;;;4.40;0.73;;;14.60;99.90;;;;;;5012602;28;20413;-79
2022/08/28 01:17:51;;;;;;;4.60;1.23;;;14.60;99.90;;;;;;5012451;28;20786;-80
2022/08/28 01:20:21;;;;;;;4.93;0.90;;;14.60;99.90;;;;;;5012822;28;20407;-81
2022/08/28 01:23:37;;;;;;;1.97;0.97;;;14.60;99.90;;;;;;5012765;28;20422;-81
2022/08/28 01:26:03;;;;;;;2.93;1.13;;;14.70;99.90;;;;;;4969109;28;20471;-80
2022/08/28 01:28:28;;;;;;;2.90;0.93;;;14.60;99.90;;;;;;5012780;28;20466;-80
2022/08/28 01:30:54;;;;;;;5.63;1.37;;;14.60;99.90;;;;;;5012359;28;20178;-81
2022/08/28 01:33:19;;;;;;;2.53;0.63;;;14.60;99.90;;;;;;5012683;28;20313;-82
2022/08/28 01:35:46;;;;;;;5.13;1.20;;;14.60;99.90;;;;;;5012744;28;20629;-81
2022/08/28 01:38:12;;;;;;;2.30;0.60;;;14.60;99.90;;;;;;5012616;28;20201;-82
2022/08/28 01:40:43;;;;;;;4.10;1.00;;;14.50;99.90;;;;;;5012663;28;20444;-81
2022/08/28 01:43:21;;;;;;;4.00;0.63;;;14.50;99.90;;;;;;5012724;28;20648;-80
2022/08/28 01:45:51;;;;;;;4.33;0.53;;;14.40;99.90;;;;;;5012211;28;20567;-81
2022/08/28 01:48:18;;;;;;;1.77;0.70;;;14.40;99.90;;;;;;5012550;28;20924;-81
2022/08/28 01:50:44;;;;;;;3.90;0.40;;;14.40;99.90;;;;;;5011389;28;20513;-81
2022/08/28 01:53:14;;;;;;;5.17;0.57;;;14.40;99.90;;;;;;5012132;28;20506;-81
2022/08/28 01:55:41;;;;;;;2.20;0.63;;;14.40;99.90;;;;;;5012382;28;20239;-82
2022/08/28 01:58:08;;;;;;;3.63;0.50;;;14.40;99.90;;;;;;5012496;28;20423;-82
2022/08/28 02:00:34;;;;;;;2.10;0.50;;;14.40;99.90;;;;;;5012213;28;20425;-81
2022/08/28 02:03:00;;;;;;;2.63;0.80;;;14.30;99.90;;;;;;5012309;28;20411;-79
2022/08/28 02:05:29;;;;;;;1.40;0.50;;;14.30;99.90;;;;;;5012318;28;20819;-81
2022/08/28 02:07:56;;;;;;;2.83;0.60;;;14.30;99.90;;;;;;5012364;28;20784;-81
2022/08/28 02:10:23;;;;;;;4.43;0.73;;;14.30;99.90;;;;;;5012381;28;20407;-81
2022/08/28 02:12:50;;;;;;;4.73;0.57;;;14.30;99.90;;;;;;5012240;28;20950;-81
2022/08/28 02:15:15;;;;;;;2.50;0.80;;;14.20;99.90;;;;;;5011915;28;20400;-81
2022/08/28 02:17:41;;;;;;;2.80;0.60;;;14.20;99.90;;;;;;5012350;28;20447;-81
2022/08/28 02:20:07;;;;;;;3.30;0.70;;;14.20;99.90;;;;;;5012388;28;20756;-80
2022/08/28 02:22:33;;;;;;;3.83;0.87;;;14.30;99.90;;;;;;5012313;28;20668;-81
2022/08/28 02:24:58;;;;;;;5.63;1.30;;;14.30;99.90;;;;;;5012056;28;20555;-81
2022/08/28 02:27:24;;;;;;;3.43;0.67;;;14.30;99.90;;;;;;5012314;28;20173;-81
2022/08/28 02:29:50;;;;;;;3.97;1.40;;;14.30;99.90;;;;;;5014759;28;20635;-80
2022/08/28 02:32:16;;;;;;;4.43;1.13;;;14.20;99.90;;;;;;5015668;28;20175;-80
2022/08/28 02:34:42;;;;;;;2.80;0.77;;;14.20;99.90;;;;;;5015874;28;20195;-80
2022/08/28 02:37:08;;;;;;;4.03;0.90;;;14.10;99.90;;;;;;5015599;28;20414;-80
2022/08/28 02:39:34;;;;;;;2.20;1.10;;;14.10;99.90;;;;;;5015612;28;20411;-80
2022/08/28 02:42:00;;;;;;;3.10;0.90;;;14.20;99.90;;;;;;5015642;28;20418;-82
2022/08/28 02:44:25;;;;;;;3.70;1.17;;;14.20;99.90;;;;;;5015261;28;20179;-81
2022/08/28 02:46:51;;;;;;;2.53;0.90;;;14.10;99.90;;;;;;5015514;28;20263;-80
2022/08/28 02:49:17;;;;;;;2.87;0.93;;;14.10;99.90;;;;;;4997987;28;20187;-80
2022/08/28 02:51:42;;;;;;;5.03;0.73;;;14.10;99.90;;;;;;5015427;28;20832;-80
2022/08/28 02:54:08;;;;;;;3.53;0.83;;;14.00;99.90;;;;;;5015337;28;20166;-80
2022/08/28 02:56:34;;;;;;;4.10;0.67;;;14.10;99.90;;;;;;5015168;28;20228;-80
2022/08/28 02:59:00;;;;;;;3.27;1.47;;;14.10;99.90;;;;;;4997699;28;20215;-80
2022/08/28 03:01:25;;;;;;;3.43;0.83;;;14.10;99.90;;;;;;5015028;28;20181;-81
2022/08/28 03:03:51;;;;;;;1.87;0.67;;;14.10;99.90;;;;;;5015274;28;20255;-81
2022/08/28 03:06:16;;;;;;;4.63;0.97;;;14.00;99.90;;;;;;5015108;28;20677;-79
2022/08/28 03:08:43;;;;;;;3.07;1.00;;;14.00;99.90;;;;;;5015049;28;20226;-79
2022/08/28 03:11:09;;;;;;;4.43;1.07;;;14.00;99.90;;;;;;5015044;28;20203;-80
2022/08/28 03:13:35;;;;;;;6.80;1.13;;;14.00;99.90;;;;;;4997453;28;20433;-80
2022/08/28 03:16:00;;;;;;;1.70;1.17;;;14.00;99.90;;;;;;5014634;28;20460;-80
2022/08/28 03:18:31;;;;;;;1.10;0.30;;;14.00;99.90;;;;;;5014927;28;20641;-79
2022/08/28 03:20:58;;;;;;;1.77;0.40;;;14.00;99.90;;;;;;5014793;28;20530;-80
2022/08/28 03:23:26;;;;;;;3.03;0.43;;;13.90;99.90;;;;;;4997229;28;20755;-80
2022/08/28 03:26:01;;;;;;;5.87;1.07;;;13.80;99.90;;;;;;5014509;28;20571;-81
2022/08/28 03:28:30;;;;;;;6.67;0.57;;;13.90;99.90;;;;;;4997241;28;20417;-81
2022/08/28 03:30:56;;;;;;;4.03;0.50;;;13.90;99.90;;;;;;4996473;28;20411;-80
2022/08/28 03:33:22;;;;;;;3.10;0.47;;;13.80;99.90;;;;;;5014757;28;20427;-80
2022/08/28 03:35:51;;;;;;;2.10;0.43;;;13.80;99.90;;;;;;5014774;28;20746;-80
2022/08/28 03:38:17;;;;;;;4.00;1.33;;;13.70;99.90;;;;;;5014621;28;20458;-80
2022/08/28 03:40:45;;;;;;;2.23;0.30;;;13.70;99.90;;;;;;5014545;28;20416;-81
2022/08/28 03:43:14;;;;;;;5.07;0.97;;;13.70;99.90;;;;;;5014385;28;20411;-81
2022/08/28 03:45:40;;;;;;;1.60;0.30;;;13.60;99.90;;;;;;5014172;28;20522;-81
2022/08/28 03:48:07;;;;;;;4.80;0.60;;;13.60;99.90;;;;;;5014418;28;20418;-81
2022/08/28 03:50:33;;;;;;;2.50;0.70;;;13.70;99.90;;;;;;5014419;28;20172;-80
2022/08/28 03:52:59;;;;;;;2.50;0.70;;;13.60;99.90;;;;;;5014342;28;20403;-81
2022/08/28 03:55:25;;;;;;;0.87;0.30;;;13.60;99.90;;;;;;5013822;28;20975;-80
2022/08/28 03:57:51;;;;;;;3.43;0.97;;;13.60;99.90;;;;;;5014213;28;20417;-80
2022/08/28 04:00:17;;;;;;;1.60;0.60;;;13.60;99.90;;;;;;5013901;28;20183;-80
2022/08/28 04:02:43;;;;;;;5.77;0.67;;;13.60;99.90;;;;;;5014192;28;20168;-80
2022/08/28 04:05:09;;;;;;;2.73;0.70;;;13.50;99.90;;;;;;5014013;28;20503;-82
2022/08/28 04:07:36;;;;;;;4.13;0.50;;;13.50;99.90;;;;;;5013988;28;20187;-80
2022/08/28 04:10:02;;;;;;;1.67;0.67;;;13.50;99.90;;;;;;5013983;28;20488;-81
2022/08/28 04:12:27;;;;;;;3.07;0.80;;;13.50;99.90;;;;;;5013987;28;20515;-81
2022/08/28 04:14:54;;;;;;;2.87;1.37;;;13.50;99.90;;;;;;5013474;28;20412;-81
2022/08/28 04:17:20;;;;;;;4.27;0.47;;;13.50;99.90;;;;;;5013763;28;20218;-79
2022/08/28 04:19:45;;;;;;;1.13;0.40;;;13.40;99.90;;;;;;5013767;28;20517;-78
2022/08/28 04:22:11;;;;;;;2.73;0.40;;;13.40;99.90;;;;;;5013720;28;20184;-80
2022/08/28 04:24:36;;;;;;;5.37;0.90;;;13.30;99.90;;;;;;5013640;28;20652;-78
2022/08/28 04:27:02;;;;;;;3.23;0.50;;;13.30;99.90;;;;;;5013654;28;20267;-78
2022/08/28 04:29:29;;;;;;;2.40;0.50;;;13.30;99.90;;;;;;4995747;28;20180;-80
2022/08/28 04:31:55;;;;;;;3.13;0.37;;;13.30;99.90;;;;;;5013632;28;20181;-80
2022/08/28 04:34:20;;;;;;;4.43;0.87;;;13.20;99.90;;;;;;5013539;28;20434;-79
2022/08/28 04:36:49;;;;;;;2.43;0.60;;;13.20;99.90;;;;;;5013493;28;21012;-78
2022/08/28 04:39:15;;;;;;;3.47;0.77;;;13.20;99.90;;;;;;5013374;28;20206;-78
2022/08/28 04:41:41;;;;;;;2.23;0.33;;;13.20;99.90;;;;;;5013417;28;20415;-78
2022/08/28 04:44:07;;;;;;;2.07;0.50;;;13.20;99.90;;;;;;5013077;28;20637;-78
2022/08/28 04:46:32;;;;;;;5.43;0.60;;;13.20;99.90;;;;;;5013407;28;20177;-79
2022/08/28 04:48:59;;;;;;;1.90;0.77;;;13.20;99.90;;;;;;5013265;28;20455;-79
2022/08/28 04:51:25;;;;;;;1.17;0.50;;;13.20;99.90;;;;;;5012850;28;20188;-82
2022/08/28 04:53:51;;;;;;;3.43;0.57;;;13.20;99.90;;;;;;5013171;28;20482;-78
2022/08/28 04:56:17;;;;;;;7.00;0.87;;;13.20;99.90;;;;;;5012833;28;20491;-78
2022/08/28 04:58:43;;;;;;;1.00;0.43;;;13.20;99.90;;;;;;5012907;28;20414;-77
2022/08/28 05:01:17;;;;;;;3.80;1.10;;;13.20;99.90;;;;;;5013202;28;20438;-80
2022/08/28 05:03:43;;;;;;;1.70;0.83;;;13.20;99.90;;;;;;5013053;28;20841;-79
2022/08/28 05:06:10;;;;;;;4.23;1.03;;;13.20;99.90;;;;;;5013032;28;20516;-78
2022/08/28 05:08:36;;;;;;;2.57;0.93;;;13.30;99.90;;;;;;5013009;28;20182;-78
2022/08/28 05:11:12;;;;;;;4.53;0.67;;;13.30;99.90;;;;;;5012897;28;20425;-78
2022/08/28 05:13:37;;;;;;;3.67;1.13;;;13.30;99.90;;;;;;5013012;28;20174;-80
2022/08/28 05:16:03;;;;;;;2.37;0.20;;;13.40;99.90;;;;;;5012499;28;20467;-78
2022/08/28 05:18:29;;;;;;;2.20;0.37;;;13.40;99.90;;;;;;5012888;28;20176;-78
2022/08/28 05:20:54;;;;;;;3.50;0.97;;;13.50;99.90;;;;;;5012802;28;20421;-78
2022/08/28 05:23:20;;;;;;;5.23;0.97;;;13.60;99.90;;;;;;5012798;28;20248;-78
2022/08/28 05:25:47;;;;;;;3.53;0.60;;;13.70;99.90;;;;;;5012811;28;20170;-79
2022/08/28 05:28:15;;;;;;;4.93;1.20;;;13.90;99.90;;;;;;5012767;28;20179;-78
2022/08/28 05:30:42;;;;;;;2.50;0.30;;;14.20;99.90;;;;;;5012324;28;20418;-81
2022/08/28 05:33:10;;;;;;;1.07;0.43;;;14.40;99.90;;;;;;5012620;28;20419;-78
2022/08/28 05:35:38;;;;;;;2.47;0.50;;;15.10;99.90;;;;;;4995056;28;20836;-79
2022/08/28 05:38:05;;;;;;;3.37;1.00;;;15.70;99.90;;;;;;5012600;28;20416;-78
2022/08/28 05:40:30;;;;;;;6.60;1.20;;;16.00;99.90;;;;;;5012684;28;20551;-78
2022/08/28 05:42:56;;;;;;;4.60;0.73;;;16.30;99.90;;;;;;5012531;28;20458;-80
2022/08/28 05:45:22;;;;;;;3.33;0.63;;;16.70;99.90;;;;;;5012298;28;20172;-78
2022/08/28 05:47:50;;;;;;;6.83;1.07;;;17.10;99.90;;;;;;5012735;28;20179;-79
2022/08/28 05:50:17;;;;;;;7.57;1.30;;;17.30;99.90;;;;;;5012758;28;20420;-79
2022/08/28 05:52:43;;;;;;;2.23;0.30;;;17.80;1.00;;;;;;5012554;28;21019;-79
2022/08/28 05:55:10;;;;;;;5.33;1.07;;;18.10;1.00;;;;;;5012095;28;20488;-78
2022/08/28 05:57:39;;;;;;;1.57;0.40;;;18.40;1.00;;;;;;5012369;28;20977;-79
2022/08/28 06:00:12;;;;;;;2.30;0.50;;;18.80;1.00;;;;;;5012186;28;20414;-79
2022/08/28 06:02:38;;;;;;;2.27;0.70;;;19.60;1.00;;;;;;5012564;28;20504;-78
2022/08/28 06:05:04;;;;;;;5.33;0.63;;;19.90;99.90;;;;;;5016110;28;20460;-79
2022/08/28 06:07:32;;;;;;;1.87;0.60;;;20.40;99.90;;;;;;5016294;28;20442;-79
2022/08/28 06:09:57;;;;;;;3.70;0.37;;;20.90;3.50;;;;;;5016241;28;20424;-80
2022/08/28 06:12:22;;;;;;;2.60;0.67;;;21.30;99.90;;;;;;4998586;28;20582;-81
2022/08/28 06:14:48;;;;;;;4.63;1.03;;;21.80;89.10;;;;;;4998018;28;20668;-80
2022/08/28 06:17:14;;;;;;;1.07;0.40;;;21.90;1.00;;;;;;4998563;28;20240;-82
2022/08/28 06:19:39;;;;;;;1.30;0.40;;;22.10;1.00;;;;;;5015966;28;20170;-80
2022/08/28 06:22:05;;;;;;;2.83;1.07;;;22.50;99.90;;;;;;5015971;28;20181;-79
2022/08/28 06:24:31;;;;;;;2.63;0.73;;;22.70;99.90;;;;;;4998390;28;20205;-80
2022/08/28 06:26:58;;;;;;;1.70;0.40;;;22.70;99.90;;;;;;5016076;28;20426;-79
2022/08/28 06:29:24;;;;;;;4.27;0.80;;;23.10;99.90;;;;;;5015656;28;20423;-79
2022/08/28 06:31:59;;;;;;;2.80;0.50;;;23.00;99.90;;;;;;5015866;28;20786;-79
2022/08/28 06:34:25;;;;;;;5.60;1.27;;;23.10;99.90;;;;;;5015244;28;20189;-79
2022/08/28 06:36:51;;;;;;;7.70;1.00;;;23.80;99.90;;;;;;5015623;28;20474;-79
2022/08/28 06:39:16;;;;;;;6.23;0.90;;;24.20;99.90;;;;;;5015796;28;20548;-81
2022/08/28 06:41:42;;;;;;;2.47;0.50;;;23.90;99.90;;;;;;5015652;28;20683;-80
2022/08/28 06:44:18;;;;;;;3.30;0.70;;;24.00;99.90;;;;;;5015230;28;20171;-80
2022/08/28 06:46:45;;;;;;;1.43;0.53;;;24.40;99.90;;;;;;5015520;28;20197;-79
2022/08/28 06:49:11;;;;;;;4.30;0.70;;;24.30;99.90;;;;;;5015454;28;20497;-79
2022/08/28 06:51:38;;;;;;;2.43;0.67;;;24.30;99.90;;;;;;5015441;28;20593;-79
2022/08/28 06:54:04;;;;;;;4.60;1.50;;;24.80;99.90;;;;;;5015468;28;20202;-79
2022/08/28 06:56:30;;;;;;;2.50;0.50;;;24.80;98.60;;;;;;5015042;28;20483;-79
2022/08/28 06:58:57;;;;;;;2.47;1.17;;;25.00;99.90;;;;;;5014894;28;20489;-82
2022/08/28 07:01:28;;;;;;;3.43;0.67;;;25.10;87.30;;;;;;5015334;28;20418;-80
2022/08/28 07:03:58;;;;;;;1.90;0.57;;;25.30;72.80;;;;;;5015329;28;20490;-79
2022/08/28 07:06:23;;;;;;;3.50;0.40;;;25.40;62.10;;;;;;5015213;28;20414;-79
2022/08/28 07:08:50;;;;;;;2.20;0.47;;;25.60;57.80;;;;;;5015106;28;20461;-80
2022/08/28 07:11:20;;;;;;;3.60;0.60;;;25.40;48.50;;;;;;5015269;28;20209;-79
2022/08/28 07:13:47;;;;;;;2.20;0.67;;;26.00;51.30;;;;;;5014330;28;20934;-81
2022/08/28 07:16:15;;;;;;;2.37;0.67;;;26.20;40.40;;;;;;5014908;28;20557;-79
2022/08/28 07:18:40;;;;;;;1.40;0.23;;;26.60;40.70;;;;;;5014660;28;20410;-81
2022/08/28 07:21:06;;;;;;;2.27;0.53;;;26.00;26.70;;;;;;5014638;28;20449;-79
2022/08/28 07:23:35;;;;;;;1.43;0.43;;;25.60;24.30;;;;;;5014985;28;20209;-80
2022/08/28 07:26:05;;;;;;;5.20;0.70;;;26.20;28.30;;;;;;5014755;28;20658;-79
2022/08/28 07:28:32;;;;;;;2.20;0.60;;;25.80;19.60;;;;;;5014531;28;20552;-81
2022/08/28 07:31:04;;;;;;;1.20;0.57;;;25.90;19.80;;;;;;5014532;28;20414;-81
2022/08/28 07:33:31;;;;;;;2.20;0.43;;;26.60;20.00;;;;;;5014676;28;20761;-80
2022/08/28 07:35:58;;;;;;;2.87;0.60;;;26.70;20.20;;;;;;5014590;28;20825;-79
2022/08/28 07:38:24;;;;;;;1.80;0.83;;;26.70;16.10;;;;;;5014631;28;20421;-79
2022/08/28 07:40:50;;;;;;;2.87;0.60;;;26.20;11.60;;;;;;5014407;28;20444;-81
2022/08/28 07:46:02;;;;;;;3.23;0.60;;;26.70;5.00;;;;;;5014765;28;20179;-80
2022/08/28 07:48:28;;;;;;;3.00;0.47;;;26.70;5.70;;;;;;5014345;28;20417;-79
2022/08/28 07:50:53;;;;;;;4.03;1.40;;;27.50;8.00;;;;;;5014105;28;20410;-80
2022/08/28 07:53:20;;;;;;;3.27;0.60;;;27.60;1.40;;;;;;5014457;28;20182;-79
2022/08/28 07:55:47;;;;;;;2.57;0.50;;;27.30;1.00;;;;;;5014031;28;20691;-80
2022/08/28 07:58:13;;;;;;;2.20;0.70;;;26.50;1.00;;;;;;5014034;28;20515;-79
2022/08/28 08:00:38;;;;;;;2.60;0.60;;;27.40;1.00;;;;;;5014180;28;20412;-79
2022/08/28 08:03:04;;;;;;;3.30;0.93;;;27.20;1.00;;;;;;5014080;28;20179;-80
2022/08/28 08:05:29;;;;;;;0.97;0.40;;;27.50;1.00;;;;;;5013838;28;20565;-79
2022/08/28 08:07:55;;;;;;;5.70;0.50;;;27.80;1.00;;;;;;5014015;28;20179;-79
2022/08/28 08:10:21;;;;;;;3.00;0.40;;;27.40;1.00;;;;;;5014033;28;20694;-81
2022/08/28 08:12:47;;;;;;;4.77;0.80;;;27.10;1.00;;;;;;5013939;28;20258;-81
2022/08/28 08:15:13;;;;;;;1.43;0.47;;;28.30;1.00;;;;;;5012360;28;21093;-78
2022/08/28 08:17:38;;;;;;;1.50;0.30;;;27.40;1.00;;;;;;5013770;28;20586;-79
2022/08/28 08:20:06;;;;;;;5.80;1.70;;;27.00;1.00;;;;;;5013361;28;20270;-79
2022/08/28 08:22:33;;;;;;;1.07;0.20;;;27.30;1.00;;;;;;5013380;28;20174;-79
2022/08/28 08:24:59;;;;;;;5.53;1.03;;;25.70;1.00;;;;;;5013693;28;20422;-79
2022/08/28 08:27:24;;;;;;;1.70;0.30;;;23.80;1.00;;;;;;5012895;28;20422;-79
2022/08/28 08:29:50;;;;;;;3.90;0.63;;;22.80;1.00;;;;;;5012860;28;20488;-78
2022/08/28 08:32:16;;;;;;;2.87;0.40;;;22.10;17.00;;;;;;5013612;28;20183;-79
2022/08/28 08:34:48;;;;;;;1.70;0.60;;;21.60;55.00;;;;;;5013418;28;20174;-78
2022/08/28 08:37:14;;;;;;;1.63;0.30;;;24.10;17.70;;;;;;5013547;28;20666;-78
2022/08/28 08:39:41;;;;;;;3.13;0.70;;;24.50;6.40;;;;;;5013550;28;20438;-79
2022/08/28 08:42:31;;;;;;;3.10;0.83;;;23.10;9.80;;;;;;5013536;28;20914;-79
2022/08/28 08:45:02;;;;;;;3.50;1.20;;;21.70;39.00;;;;;;5013720;28;20418;-79
2022/08/28 08:47:52;;;;;;;2.60;0.63;;;24.40;32.70;;;;;;5015156;28;20421;-79
2022/08/28 08:50:20;;;;;;;1.80;0.70;;;26.60;1.00;;;;;;5014931;28;20429;-80
2022/08/28 08:53:18;;;;;;;1.80;0.40;;;26.60;1.00;;;;;;5014016;28;20410;-80
2022/08/28 08:55:49;;;;;;;3.77;0.50;;;27.40;1.00;;;;;;4995431;28;21009;-80
2022/08/28 08:58:40;;;;;;;2.23;0.50;;;24.60;1.00;;;;;;5012926;28;20430;-84
2022/08/28 09:01:40;;;;;;;2.00;0.50;;;23.30;2.10;;;;;;5013080;28;20422;-83
2022/08/28 09:04:18;;;;;;;2.10;0.40;;;25.80;1.00;;;;;;5012942;28;20406;-84
2022/08/28 09:06:57;;;;;;;4.03;0.90;;;24.90;1.00;;;;;;5013104;28;20913;-83
2022/08/28 09:09:35;;;;;;;4.73;1.10;;;24.50;1.00;;;;;;5013148;28;20460;-86
2022/08/28 09:12:24;;;;;;;2.63;0.60;;;25.30;1.00;;;;;;5012848;28;20405;-81
2022/08/28 09:15:04;;;;;;;2.07;0.50;;;24.70;1.00;;;;;;5012471;28;20416;-82
2022/08/28 09:17:46;;;;;;;3.70;0.67;;;24.60;1.00;;;;;;5013007;28;20405;-83
2022/08/28 09:20:15;;;;;;;2.87;0.50;;;27.00;1.00;;;;;;4995232;28;20966;-85
2022/08/28 09:22:43;;;;;;;1.57;0.53;;;28.20;1.00;;;;;;5012690;28;20414;-83
2022/08/28 09:25:11;;;;;;;3.17;0.63;;;27.30;1.00;;;;;;5012833;28;20425;-84
2022/08/28 09:27:46;;;;;;;3.60;0.70;;;25.70;1.00;;;;;;5012832;28;20417;-84
2022/08/28 09:30:12;;;;;;;4.10;1.20;;;24.10;1.00;;;;;;5012432;28;20410;-84
2022/08/28 09:32:43;;;;;;;2.83;0.97;;;23.50;1.00;;;;;;5012973;28;20429;-85
2022/08/28 09:35:24;;;;;;;2.50;0.80;;;25.10;1.00;;;;;;5012747;28;20461;-79
2022/08/28 09:37:50;;;;;;;2.40;0.63;;;27.50;1.00;;;;;;5015806;28;20421;-81
2022/08/28 09:40:18;;;;;;;2.50;0.83;;;28.70;1.00;;;;;;5019342;28;20921;-80
2022/08/28 09:46:20;;;;;;;1.47;0.50;;;24.90;1.00;;;;;;5019398;28;20460;-80
2022/08/28 09:48:47;;;;;;;3.60;0.63;;;23.50;1.00;;;;;;5012950;28;20433;-77
2022/08/28 09:51:21;;;;;;;2.67;0.47;;;22.70;1.00;;;;;;5019046;28;20410;-79
2022/08/28 09:53:56;;;;;;;2.57;0.30;;;22.20;2.70;;;;;;5019033;28;21264;-82
2022/08/28 09:56:38;;;;;;;2.60;0.50;;;21.90;6.40;;;;;;5018885;28;20827;-80
2022/08/28 09:59:16;;;;;;;2.40;0.93;;;22.90;10.20;;;;;;5018678;28;20422;-79
2022/08/28 10:01:59;;;;;;;1.77;0.60;;;23.20;10.50;;;;;;5019087;28;20448;-79
2022/08/28 10:04:50;;;;;;;3.80;0.90;;;25.30;1.00;;;;;;5019025;28;20418;-79
2022/08/28 10:07:40;;;;;;;2.40;0.60;;;27.60;1.00;;;;;;5018958;28;20405;-80
2022/08/28 10:10:19;;;;;;;2.30;0.60;;;28.90;1.00;;;;;;5001354;28;20975;-79
2022/08/28 10:13:12;;;;;;;3.50;0.40;;;28.70;1.00;;;;;;5018929;28;20422;-79
2022/08/28 10:15:55;;;;;;;2.87;0.77;;;27.70;1.00;;;;;;5018929;28;20479;-79
2022/08/28 10:18:37;;;;;;;3.13;0.63;;;25.40;1.00;;;;;;5019056;28;20416;-80
2022/08/28 10:21:13;;;;;;;3.23;0.60;;;24.90;1.00;;;;;;5018611;28;20422;-80
2022/08/28 10:23:42;;;;;;;3.93;0.97;;;25.70;1.00;;;;;;5018971;28;20483;-81
2022/08/28 10:26:45;;;;;;;6.27;0.77;;;27.20;1.00;;;;;;5018828;28;20409;-80
2022/08/28 10:29:47;;;;;;;2.20;0.57;;;27.90;1.00;;;;;;4977826;28;20425;-79
2022/08/28 10:32:45;;;;;;;2.50;0.77;;;25.80;1.00;;;;;;5001057;28;20431;-80
2022/08/28 10:35:28;;;;;;;3.20;0.53;;;25.50;1.00;;;;;;5018633;28;20452;-83
2022/08/28 10:38:17;;;;;;;2.07;0.77;;;24.90;1.00;;;;;;5018607;28;20416;-82
2022/08/28 10:40:54;;;;;;;1.83;0.30;;;24.50;1.00;;;;;;5018781;28;20501;-82
2022/08/28 10:43:28;;;;;;;3.00;0.67;;;25.20;1.00;;;;;;5018270;28;20424;-84
2022/08/28 10:45:57;;;;;;;1.73;0.23;;;25.30;1.00;;;;;;5018630;28;20914;-83
2022/08/28 10:48:38;;;;;;;1.93;0.40;;;25.40;1.00;;;;;;5018090;28;20420;-84
2022/08/28 10:51:10;;;;;;;1.10;0.50;;;25.70;1.00;;;;;;5015248;28;20418;-78
2022/08/28 10:53:43;;;;;;;3.83;0.60;;;25.40;1.00;;;;;;5015574;28;20552;-77
2022/08/28 10:56:20;;;;;;;1.57;0.47;;;24.40;1.00;;;;;;5015197;28;20485;-79
2022/08/28 10:58:50;;;;;;;2.73;0.80;;;24.50;1.00;;;;;;5015011;28;20446;-79
2022/08/28 11:01:26;;;;;;;3.80;0.70;;;24.90;1.00;;;;;;5015315;28;20846;-80
2022/08/28 11:03:52;;;;;;;2.23;0.40;;;24.90;1.00;;;;;;5015178;28;20504;-80
2022/08/28 11:06:27;;;;;;;3.70;0.83;;;24.30;1.00;;;;;;5015296;28;20429;-81
2022/08/28 11:08:59;;;;;;;3.27;0.73;;;24.00;1.00;;;;;;5015052;28;20435;-80
2022/08/28 11:11:47;;;;;;;3.33;1.20;;;23.40;1.00;;;;;;5015295;28;20448;-80
2022/08/28 11:14:44;;;;;;;3.50;0.67;;;22.80;1.00;;;;;;5014749;28;20483;-80
2022/08/28 11:17:21;;;;;;;3.13;1.40;;;22.20;1.00;;;;;;4998949;28;20452;-84
2022/08/28 11:20:14;;;;;;;2.07;0.73;;;22.10;1.00;;;;;;5015019;28;20420;-84
2022/08/28 11:22:51;;;;;;;3.07;0.77;;;22.50;1.00;;;;;;5015054;28;20437;-85
2022/08/28 11:25:23;;;;;;;2.50;0.93;;;22.30;1.00;;;;;;5014823;28;20409;-83
2022/08/28 11:28:14;;;;;;;3.70;0.90;;;22.40;1.00;;;;;;5014378;28;20414;-80
2022/08/28 11:30:41;;;;;;;3.73;0.83;;;22.40;1.00;;;;;;5014520;28;20410;-82
2022/08/28 11:33:28;;;;;;;3.03;0.70;;;22.50;1.00;;;;;;5014666;28;20454;-79
2022/08/28 11:35:54;;;;;;;3.87;0.50;;;22.90;1.00;;;;;;5014581;28;20472;-78
2022/08/28 11:38:39;;;;;;;3.50;0.87;;;23.50;1.00;;;;;;5014598;28;20410;-80
2022/08/28 11:41:37;;;;;;;2.63;0.80;;;24.20;1.00;;;;;;5000507;28;20194;-80
2022/08/28 11:44:12;;;;;;;2.40;1.07;;;24.70;1.00;;;;;;5014175;28;20425;-79
2022/08/28 11:46:46;;;;;;;1.90;0.93;;;26.70;1.00;;;;;;5014500;28;20417;-80
2022/08/28 11:49:33;;;;;;;2.80;0.73;;;27.80;1.00;;;;;;5014294;28;20444;-79
2022/08/28 11:52:35;;;;;;;2.90;0.90;;;27.00;1.00;;;;;;5014356;28;20406;-83
2022/08/28 11:55:23;;;;;;;1.93;0.50;;;25.50;1.00;;;;;;4996337;28;20551;-80
2022/08/28 11:58:14;;;;;;;3.50;1.10;;;24.80;1.00;;;;;;5013897;28;20429;-78
2022/08/28 12:01:02;;;;;;;3.50;1.17;;;24.60;1.00;;;;;;5013189;28;20426;-77
2022/08/28 12:03:58;;;;;;;3.20;0.50;;;25.90;1.00;;;;;;5014111;28;20421;-78
2022/08/28 12:06:43;;;;;;;3.70;1.20;;;25.00;1.00;;;;;;4997652;28;20465;-79
2022/08/28 12:09:09;;;;;;;3.27;0.93;;;24.70;1.00;;;;;;4996341;28;20430;-80
2022/08/28 12:11:38;;;;;;;2.10;0.67;;;24.40;1.00;;;;;;5014108;28;20414;-80
2022/08/28 12:14:04;;;;;;;3.83;0.80;;;24.00;1.00;;;;;;5013561;28;20778;-80
2022/08/28 12:16:58;;;;;;;2.97;0.97;;;23.50;1.00;;;;;;5013960;28;20500;-80
2022/08/28 12:19:42;;;;;;;5.17;1.10;;;23.00;1.00;;;;;;5013885;28;21256;-79
2022/08/28 12:22:13;;;;;;;4.27;1.27;;;22.70;1.00;;;;;;5013809;28;20500;-79
2022/08/28 12:24:48;;;;;;;3.70;1.10;;;23.00;1.00;;;;;;5013712;28;20418;-82
2022/08/28 12:27:14;;;;;;;2.73;1.23;;;23.40;1.00;;;;;;5013747;28;20412;-79
2022/08/28 12:29:51;;;;;;;3.33;1.07;;;23.40;1.00;;;;;;5013550;28;20998;-80
2022/08/28 12:32:29;;;;;;;2.33;1.17;;;24.80;1.00;;;;;;5013724;28;20516;-79
2022/08/28 12:34:57;;;;;;;3.80;0.87;;;24.10;1.00;;;;;;5013535;28;20460;-82
2022/08/28 12:37:23;;;;;;;3.83;1.27;;;23.40;1.00;;;;;;5013516;28;20476;-81
2022/08/28 12:39:49;;;;;;;2.63;0.83;;;22.90;1.00;;;;;;5013441;28;20414;-82
2022/08/28 12:42:17;;;;;;;3.50;1.33;;;22.90;1.00;;;;;;5013347;28;20183;-79
2022/08/28 12:44:43;;;;;;;6.10;1.53;;;22.70;1.00;;;;;;5012904;28;20436;-81
2022/08/28 12:47:17;;;;;;;3.40;0.90;;;22.80;1.00;;;;;;5013287;28;20922;-78
2022/08/28 12:49:43;;;;;;;1.93;0.77;;;23.20;1.00;;;;;;5013472;28;20432;-79
2022/08/28 12:52:21;;;;;;;1.93;0.47;;;23.00;1.00;;;;;;5013389;28;20418;-80
2022/08/28 12:54:49;;;;;;;3.17;1.77;;;22.70;1.00;;;;;;5012817;28;20186;-80
2022/08/28 12:57:18;;;;;;;4.17;1.43;;;22.40;1.00;;;;;;5013257;28;20414;-82
2022/08/28 12:59:49;;;;;;;1.80;0.77;;;22.00;1.00;;;;;;5012913;28;20422;-82
2022/08/28 13:02:29;;;;;;;2.10;0.77;;;21.80;10.30;;;;;;5012817;28;20428;-80
2022/08/28 13:05:07;;;;;;;3.10;1.07;;;21.60;17.20;;;;;;5012948;28;20440;-81
2022/08/28 13:07:36;;;;;;;3.10;1.60;;;21.90;14.10;;;;;;5013056;28;20413;-82
2022/08/28 13:10:20;;;;;;;2.00;1.10;;;23.20;3.10;;;;;;5013044;28;20439;-79
2022/08/28 13:12:56;;;;;;;2.10;0.70;;;24.70;1.00;;;;;;5012329;28;20453;-80
2022/08/28 13:15:51;;;;;;;4.20;1.73;;;25.50;1.00;;;;;;5012986;28;20614;-82